createdAt,value
2023-04-14T00:00:43.828Z,1.60
2023-04-14T00:03:12.147Z,1.60
2023-04-14T00:05:39.686Z,1.60
2023-04-14T00:08:07.202Z,1.98
2023-04-14T00:10:34.728Z,1.73
2023-04-14T00:13:02.242Z,1.83
2023-04-14T00:15:29.740Z,2.08
2023-04-14T00:17:57.081Z,1.88
2023-04-14T00:20:24.683Z,1.75
2023-04-14T00:22:51.961Z,1.73
2023-04-14T00:25:19.628Z,2.03
2023-04-14T00:27:46.939Z,2.85
2023-04-14T00:30:15.089Z,1.95
2023-04-14T00:32:42.589Z,1.92
2023-04-14T00:35:09.999Z,2.20
2023-04-14T00:37:37.393Z,2.03
2023-04-14T00:40:05.105Z,2.58
2023-04-14T00:42:32.648Z,2.05
2023-04-14T00:45:00.777Z,2.53
2023-04-14T00:47:28.398Z,1.85
2023-04-14T00:49:56.976Z,2.20
2023-04-14T00:52:25.661Z,2.20
2023-04-14T00:54:53.116Z,2.13
2023-04-14T00:57:20.468Z,2.03
2023-04-14T00:59:47.877Z,2.10
2023-04-14T01:02:15.577Z,1.83
2023-04-14T01:04:53.621Z,2.05
2023-04-14T01:07:23.390Z,2.63
2023-04-14T01:09:53.064Z,1.98
2023-04-14T01:12:38.954Z,2.15
2023-04-14T01:15:30.422Z,2.25
2023-04-14T01:18:08.349Z,3.13
2023-04-14T01:20:45.854Z,2.97
2023-04-14T01:23:20.735Z,2.97
2023-04-14T01:26:17.983Z,3.03
2023-04-14T01:29:01.615Z,3.70
2023-04-14T01:31:40.093Z,2.22
2023-04-14T01:34:15.884Z,2.75
2023-04-14T01:36:58.724Z,2.78
2023-04-14T01:39:31.108Z,2.50
2023-04-14T01:41:58.523Z,2.38
2023-04-14T01:44:27.070Z,2.38
2023-04-14T01:47:04.466Z,2.45
2023-04-14T01:49:34.487Z,2.58
2023-04-14T01:52:06.403Z,2.20
2023-04-14T01:56:04.654Z,2.00
2023-04-14T02:01:41.480Z,3.65
2023-04-14T02:04:10.053Z,2.13
2023-04-14T02:06:39.379Z,2.28
2023-04-14T02:09:10.593Z,2.78
2023-04-14T02:11:39.715Z,2.92
2023-04-14T02:14:09.598Z,2.55
2023-04-14T02:16:39.124Z,2.15
2023-04-14T02:19:06.734Z,2.60
2023-04-14T02:21:35.407Z,2.50
2023-04-14T02:24:03.709Z,2.30
2023-04-14T02:26:32.683Z,2.20
2023-04-14T02:29:12.286Z,3.05
2023-04-14T02:32:02.981Z,2.38
2023-04-14T02:34:37.983Z,2.53
2023-04-14T02:37:18.716Z,1.90
2023-04-14T02:39:53.239Z,2.15
2023-04-14T02:42:25.899Z,2.35
2023-04-14T02:45:03.126Z,2.70
2023-04-14T02:47:34.943Z,1.73
2023-04-14T02:50:04.121Z,2.58
2023-04-14T02:52:32.832Z,2.88
2023-04-14T02:55:02.950Z,2.03
2023-04-14T02:57:33.640Z,2.58
2023-04-14T03:03:35.051Z,1.85
2023-04-14T03:09:28.972Z,2.40
2023-04-14T03:12:07.104Z,2.38
2023-04-14T03:15:42.855Z,2.30
2023-04-14T03:21:37.183Z,2.30
2023-04-14T03:24:33.824Z,2.05
2023-04-14T03:27:26.282Z,3.15
2023-04-14T03:29:58.371Z,3.40
2023-04-14T03:32:29.381Z,2.60
2023-04-14T03:34:59.134Z,2.47
2023-04-14T03:37:28.348Z,2.40
2023-04-14T03:40:00.681Z,3.30
2023-04-14T03:42:30.094Z,2.40
2023-04-14T03:44:58.607Z,2.67
2023-04-14T03:47:28.725Z,2.75
2023-04-14T03:50:01.478Z,2.10
2023-04-14T03:52:35.506Z,3.42
2023-04-14T03:55:06.884Z,2.67
2023-04-14T03:57:36.298Z,2.53
2023-04-14T04:00:08.534Z,2.78
2023-04-14T04:02:38.515Z,2.33
2023-04-14T04:05:09.420Z,2.22
2023-04-14T04:07:38.939Z,2.40
2023-04-14T04:10:07.830Z,2.42
2023-04-14T04:12:37.694Z,3.30
2023-04-14T04:15:06.072Z,2.50
2023-04-14T04:17:34.856Z,2.22
2023-04-14T04:20:08.172Z,3.20
2023-04-14T04:22:38.303Z,3.33
2023-04-14T04:25:06.941Z,3.05
2023-04-14T04:27:35.275Z,3.17
2023-04-14T04:30:07.351Z,2.92
2023-04-14T04:32:37.267Z,3.65
2023-04-14T04:35:07.348Z,2.83
2023-04-14T04:37:35.603Z,3.05
2023-04-14T04:40:04.201Z,2.85
2023-04-14T04:42:31.603Z,2.67
2023-04-14T04:44:58.921Z,3.08
2023-04-14T04:47:26.410Z,3.70
2023-04-14T04:49:53.723Z,3.15
2023-04-14T04:52:21.161Z,2.95
2023-04-14T04:54:52.411Z,3.10
2023-04-14T04:57:19.932Z,3.22
2023-04-14T04:59:47.895Z,2.72
2023-04-14T05:02:15.527Z,3.65
2023-04-14T05:04:43.453Z,4.68
2023-04-14T05:07:10.976Z,2.90
2023-04-14T05:09:38.275Z,3.63
2023-04-14T05:12:05.986Z,3.75
2023-04-14T05:14:33.450Z,2.80
2023-04-14T05:17:00.870Z,3.50
2023-04-14T05:19:28.159Z,3.50
2023-04-14T05:21:55.827Z,3.30
2023-04-14T05:24:23.086Z,3.20
2023-04-14T05:27:09.567Z,4.25
2023-04-14T05:29:38.768Z,4.38
2023-04-14T05:32:06.044Z,4.28
2023-04-14T05:34:33.320Z,5.00
2023-04-14T05:37:00.597Z,3.53
2023-04-14T05:39:27.868Z,4.05
2023-04-14T05:41:55.684Z,3.65
2023-04-14T05:44:23.900Z,4.25
2023-04-14T05:46:51.705Z,4.15
2023-04-14T05:49:18.976Z,4.47
2023-04-14T05:51:46.465Z,5.25
2023-04-14T05:54:14.207Z,4.80
2023-04-14T05:56:41.506Z,4.53
2023-04-14T05:59:08.859Z,4.55
2023-04-14T06:01:36.463Z,4.55
2023-04-14T06:04:04.565Z,4.03
2023-04-14T06:06:32.823Z,3.85
2023-04-14T06:09:00.487Z,3.95
2023-04-14T06:11:28.141Z,3.53
2023-04-14T06:13:55.663Z,4.45
2023-04-14T06:16:23.197Z,3.85
2023-04-14T06:18:50.616Z,4.20
2023-04-14T06:21:17.863Z,3.80
2023-04-14T06:23:45.383Z,5.00
2023-04-14T06:26:12.715Z,3.88
2023-04-14T06:28:42.027Z,4.10
2023-04-14T06:31:10.891Z,5.10
2023-04-14T06:33:38.159Z,5.25
2023-04-14T06:36:05.936Z,4.57
2023-04-14T06:38:33.209Z,3.63
2023-04-14T06:41:00.785Z,4.93
2023-04-14T06:43:28.974Z,4.10
2023-04-14T06:45:56.914Z,3.85
2023-04-14T06:48:24.321Z,5.07
2023-04-14T06:50:56.163Z,3.80
2023-04-14T06:53:23.953Z,4.20
2023-04-14T06:55:59.158Z,4.43
2023-04-14T06:58:30.565Z,4.20
2023-04-14T07:01:02.640Z,4.70
2023-04-14T07:03:34.740Z,4.82
2023-04-14T07:06:06.942Z,4.53
2023-04-14T07:08:35.365Z,4.57
2023-04-14T07:11:04.854Z,5.10
2023-04-14T07:13:32.662Z,5.15
2023-04-14T07:16:04.200Z,3.88
2023-04-14T07:18:31.900Z,3.85
2023-04-14T07:21:00.206Z,3.85
2023-04-14T07:23:28.393Z,4.15
2023-04-14T07:25:59.908Z,4.43
2023-04-14T07:28:28.473Z,4.15
2023-04-14T07:30:56.120Z,3.88
2023-04-14T07:33:23.872Z,4.25
2023-04-14T07:36:02.011Z,4.13
2023-04-14T07:38:33.752Z,3.63
2023-04-14T07:41:04.638Z,4.40
2023-04-14T07:43:35.513Z,5.55
2023-04-14T07:46:08.584Z,4.32
2023-04-14T07:48:37.368Z,3.67
2023-04-14T07:51:05.539Z,3.60
2023-04-14T07:53:33.416Z,4.43
2023-04-14T07:56:00.820Z,3.92
2023-04-14T07:58:29.414Z,4.20
2023-04-14T08:00:57.607Z,3.42
2023-04-14T08:03:25.470Z,3.55
2023-04-14T08:05:53.031Z,4.07
2023-04-14T08:08:20.847Z,3.85
2023-04-14T08:10:48.629Z,3.45
2023-04-14T08:13:16.104Z,4.72
2023-04-14T08:15:43.490Z,4.35
2023-04-14T08:18:10.820Z,3.00
2023-04-14T08:20:38.672Z,4.60
2023-04-14T08:23:06.038Z,3.53
2023-04-14T08:25:33.346Z,4.05
2023-04-14T08:28:01.053Z,3.35
2023-04-14T08:30:28.450Z,3.30
2023-04-14T08:32:58.956Z,4.13
2023-04-14T08:35:35.632Z,2.78
2023-04-14T08:38:07.658Z,3.65
2023-04-14T08:40:40.288Z,3.05
2023-04-14T08:43:07.895Z,2.90
2023-04-14T08:45:35.786Z,3.30
2023-04-14T08:48:05.101Z,2.78
2023-04-14T08:51:07.114Z,3.53
2023-04-14T08:53:42.753Z,4.53
2023-04-14T08:56:17.236Z,3.72
2023-04-14T08:58:45.346Z,3.17
2023-04-14T09:01:13.545Z,3.15
2023-04-14T09:03:41.824Z,4.40
2023-04-14T09:06:09.664Z,3.40
2023-04-14T09:08:37.030Z,3.85
2023-04-14T09:11:04.821Z,2.42
2023-04-14T09:13:32.351Z,2.92
2023-04-14T09:16:00.299Z,2.92
2023-04-14T09:18:28.829Z,2.92
2023-04-14T09:21:50.378Z,2.03
2023-04-14T09:23:47.296Z,3.10
2023-04-14T09:26:14.898Z,2.45
2023-04-14T09:28:42.373Z,3.72
2023-04-14T09:31:11.350Z,2.95
2023-04-14T09:33:43.550Z,2.60
2023-04-14T09:36:21.016Z,3.13
2023-04-14T09:38:50.044Z,2.22
2023-04-14T09:41:26.150Z,2.72
2023-04-14T09:43:53.563Z,3.25
2023-04-14T09:46:21.662Z,2.80
2023-04-14T09:48:56.849Z,4.55
2023-04-14T09:51:28.723Z,3.72
2023-04-14T09:54:06.427Z,4.00
2023-04-14T09:56:34.196Z,4.82
2023-04-14T09:59:02.877Z,3.70
2023-04-14T10:01:33.887Z,4.47
2023-04-14T10:04:03.281Z,3.00
2023-04-14T10:06:33.852Z,2.75
2023-04-14T10:09:02.290Z,2.85
2023-04-14T10:11:33.009Z,3.80
2023-04-14T10:14:05.347Z,2.33
2023-04-14T10:16:33.957Z,3.10
2023-04-14T10:19:02.261Z,2.67
2023-04-14T10:21:30.093Z,2.72
2023-04-14T10:23:58.114Z,2.13
2023-04-14T10:26:26.358Z,2.25
2023-04-14T10:28:56.316Z,2.63
2023-04-14T10:31:32.266Z,2.95
2023-04-14T10:34:06.965Z,2.80
2023-04-14T10:36:36.855Z,2.53
2023-04-14T10:39:05.820Z,2.03
2023-04-14T10:41:55.750Z,3.05
2023-04-14T10:44:26.327Z,2.53
2023-04-14T10:46:56.335Z,2.58
2023-04-14T10:49:35.453Z,2.33
2023-04-14T10:52:25.201Z,2.22
2023-04-14T10:54:54.208Z,1.88
2023-04-14T10:57:28.810Z,2.83
2023-04-14T10:59:59.115Z,3.35
2023-04-14T11:02:30.868Z,3.10
2023-04-14T11:05:11.662Z,3.35
2023-04-14T11:07:45.578Z,2.47
2023-04-14T11:10:22.295Z,2.22
2023-04-14T11:12:57.454Z,2.97
2023-04-14T11:15:42.562Z,2.15
2023-04-14T11:18:19.192Z,1.63
2023-04-14T11:20:46.961Z,1.90
2023-04-14T11:23:15.296Z,1.80
2023-04-14T11:25:43.172Z,2.38
2023-04-14T11:28:10.544Z,1.60
2023-04-14T11:30:40.923Z,1.98
2023-04-14T11:33:08.184Z,1.60
2023-04-14T11:35:35.525Z,1.15
2023-04-14T11:38:02.820Z,1.83
2023-04-14T11:40:30.193Z,2.17
2023-04-14T11:42:58.806Z,2.88
2023-04-14T11:45:29.928Z,2.75
2023-04-14T11:47:59.153Z,2.15
2023-04-14T11:50:29.392Z,2.08
2023-04-14T11:52:59.583Z,2.08
2023-04-14T11:55:28.126Z,2.05
2023-04-14T11:57:56.410Z,2.00
2023-04-14T12:00:24.538Z,2.30
2023-04-14T12:02:52.478Z,1.92
2023-04-14T12:05:23.094Z,1.73
2023-04-14T12:07:50.511Z,1.48
2023-04-14T12:10:17.889Z,1.75
2023-04-14T12:12:45.226Z,1.50
2023-04-14T12:15:13.630Z,1.33
2023-04-14T12:17:41.972Z,1.35
2023-04-14T12:20:16.286Z,1.20
2023-04-14T12:22:43.859Z,1.25
2023-04-14T12:25:12.646Z,1.02
2023-04-14T12:27:40.044Z,1.15
2023-04-14T12:30:09.341Z,1.17
2023-04-14T12:32:40.976Z,1.00
2023-04-14T12:35:08.964Z,1.45
2023-04-14T12:37:38.663Z,1.20
2023-04-14T12:40:07.105Z,1.00
2023-04-14T12:42:47.376Z,1.10
2023-04-14T12:45:16.413Z,1.13
2023-04-14T12:47:57.005Z,1.42
2023-04-14T12:50:29.465Z,1.00
2023-04-14T12:52:57.282Z,1.30
2023-04-14T12:55:31.763Z,1.15
2023-04-14T12:57:59.721Z,0.80
2023-04-14T13:00:28.324Z,1.30
2023-04-14T13:02:56.809Z,0.95
2023-04-14T13:05:24.356Z,1.20
2023-04-14T13:07:51.791Z,1.17
2023-04-14T13:10:19.137Z,2.15
2023-04-14T13:12:46.417Z,1.00
2023-04-14T13:15:31.077Z,1.10
2023-04-14T13:18:01.062Z,1.00
2023-04-14T13:20:30.549Z,1.08
2023-04-14T13:22:57.872Z,0.90
2023-04-14T13:25:25.209Z,1.02
2023-04-14T13:27:53.197Z,0.80
2023-04-14T13:30:20.736Z,0.75
2023-04-14T13:32:48.025Z,1.02
2023-04-14T13:35:15.591Z,0.80
2023-04-14T13:37:42.874Z,0.90
2023-04-14T13:40:11.356Z,1.13
2023-04-14T13:42:38.735Z,1.30
2023-04-14T13:45:06.992Z,1.35
2023-04-14T13:47:34.275Z,1.15
2023-04-14T13:50:01.747Z,1.50
2023-04-14T13:52:28.999Z,1.90
2023-04-14T13:54:56.349Z,1.67
2023-04-14T13:57:26.775Z,1.42
2023-04-14T13:59:54.094Z,1.10
2023-04-14T14:02:22.921Z,1.40
2023-04-14T14:04:50.302Z,1.30
2023-04-14T14:07:17.582Z,1.30
2023-04-14T14:09:45.923Z,1.02
2023-04-14T14:12:13.362Z,1.00
2023-04-14T14:14:40.686Z,1.08
2023-04-14T14:17:08.436Z,0.90
2023-04-14T14:19:36.274Z,1.27
2023-04-14T14:22:03.771Z,1.50
2023-04-14T14:24:31.058Z,2.15
2023-04-14T14:26:58.545Z,2.08
2023-04-14T14:29:25.838Z,2.00
2023-04-14T14:31:53.456Z,2.38
2023-04-14T14:34:21.010Z,2.63
2023-04-14T14:36:48.317Z,1.88
2023-04-14T14:39:15.684Z,2.10
2023-04-14T14:41:42.980Z,2.33
2023-04-14T14:44:10.407Z,1.90
2023-04-14T14:46:37.925Z,1.63
2023-04-14T14:49:05.501Z,2.35
2023-04-14T14:51:33.032Z,1.55
2023-04-14T14:54:09.316Z,1.80
2023-04-14T14:56:38.219Z,1.40
2023-04-14T14:59:05.947Z,1.08
2023-04-14T15:01:33.596Z,2.38
2023-04-14T15:04:01.129Z,1.70
2023-04-14T15:06:28.715Z,1.33
2023-04-14T15:08:56.069Z,1.80
2023-04-14T15:11:24.421Z,1.50
2023-04-14T15:13:52.087Z,1.38
2023-04-14T15:16:19.631Z,1.40
2023-04-14T15:18:46.992Z,1.88
2023-04-14T15:21:14.287Z,1.08
2023-04-14T15:23:43.742Z,3.25
2023-04-14T15:26:12.389Z,1.52
2023-04-14T15:28:39.819Z,1.65
2023-04-14T15:31:07.808Z,1.50
2023-04-14T15:33:37.750Z,1.65
2023-04-14T15:36:05.301Z,1.80
2023-04-14T15:38:32.663Z,1.20
2023-04-14T15:41:00.015Z,1.73
2023-04-14T15:43:27.867Z,1.83
2023-04-14T15:46:20.403Z,1.45
2023-04-14T15:48:47.753Z,1.30
2023-04-14T15:51:15.157Z,1.30
2023-04-14T15:53:42.460Z,1.73
2023-04-14T15:56:09.752Z,1.63
2023-04-14T15:58:37.125Z,1.55
2023-04-14T16:01:08.192Z,1.20
2023-04-14T16:03:36.861Z,1.20
2023-04-14T16:06:06.901Z,1.52
2023-04-14T16:08:34.412Z,1.50
2023-04-14T16:11:02.416Z,1.20
2023-04-14T16:13:29.719Z,1.50
2023-04-14T16:15:58.438Z,1.20
2023-04-14T16:18:25.902Z,1.40
2023-04-14T16:20:53.566Z,1.25
2023-04-14T16:23:20.896Z,1.50
2023-04-14T16:25:51.186Z,1.40
2023-04-14T16:28:18.680Z,1.40
2023-04-14T16:30:45.991Z,1.58
2023-04-14T16:33:13.607Z,1.40
2023-04-14T16:35:41.244Z,1.95
2023-04-14T16:38:08.851Z,1.75
2023-04-14T16:40:36.760Z,1.80
2023-04-14T16:43:04.866Z,1.60
2023-04-14T16:45:32.522Z,1.77
2023-04-14T16:48:00.095Z,1.65
2023-04-14T16:50:27.828Z,1.70
2023-04-14T16:52:55.082Z,1.58
2023-04-14T16:55:22.320Z,1.80
2023-04-14T16:57:49.667Z,1.70
2023-04-14T17:00:17.364Z,1.67
2023-04-14T17:02:44.810Z,2.95
2023-04-14T17:05:15.996Z,1.90
2023-04-14T17:07:43.704Z,2.03
2023-04-14T17:10:11.490Z,2.35
2023-04-14T17:12:39.195Z,2.90
2023-04-14T17:15:07.429Z,2.63
2023-04-14T17:17:36.783Z,2.20
2023-04-14T17:20:07.931Z,1.85
2023-04-14T17:22:35.275Z,1.90
2023-04-14T17:25:05.344Z,1.98
2023-04-14T17:27:33.079Z,2.75
2023-04-14T17:30:00.501Z,1.83
2023-04-14T17:32:28.137Z,1.50
2023-04-14T17:34:55.862Z,1.58
2023-04-14T17:37:23.273Z,2.22
2023-04-14T17:39:53.178Z,2.22
2023-04-14T17:42:21.781Z,2.53
2023-04-14T17:44:49.078Z,3.50
2023-04-14T17:47:16.995Z,1.70
2023-04-14T17:49:44.392Z,1.60
2023-04-14T17:52:11.842Z,2.10
2023-04-14T17:54:39.454Z,2.60
2023-04-14T17:57:09.988Z,2.20
2023-04-14T17:59:37.769Z,2.72
2023-04-14T18:02:05.346Z,2.50
2023-04-14T18:04:32.663Z,3.00
2023-04-14T18:06:59.997Z,2.33
2023-04-14T18:09:28.153Z,2.38
2023-04-14T18:11:56.392Z,2.25
2023-04-14T18:14:24.098Z,2.20
2023-04-14T18:16:51.487Z,2.30
2023-04-14T18:19:19.011Z,2.17
2023-04-14T18:21:47.000Z,2.53
2023-04-14T18:26:44.732Z,2.00
2023-04-14T18:29:12.143Z,2.38
2023-04-14T18:31:39.426Z,1.75
2023-04-14T18:34:06.936Z,1.80
2023-04-14T18:36:34.224Z,2.28
2023-04-14T18:39:02.034Z,1.80
2023-04-14T18:41:29.650Z,1.95
2023-04-14T18:43:56.987Z,1.65
2023-04-14T18:46:24.510Z,1.70
2023-04-14T18:48:51.828Z,1.92
2023-04-14T18:51:19.205Z,2.15
2023-04-14T18:53:46.838Z,2.42
2023-04-14T18:56:14.421Z,2.60
2023-04-14T18:58:41.877Z,4.25
2023-04-14T19:01:09.759Z,4.50
2023-04-14T19:03:37.760Z,4.55
2023-04-14T19:06:05.404Z,4.43
2023-04-14T19:08:32.712Z,3.35
2023-04-14T19:11:00.000Z,2.60
2023-04-14T19:13:27.374Z,2.30
2023-04-14T19:16:05.850Z,2.25
2023-04-14T19:18:33.340Z,2.10
2023-04-14T19:21:00.769Z,1.70
2023-04-14T19:23:28.555Z,1.73
2023-04-14T19:25:56.201Z,1.90
2023-04-14T19:28:23.502Z,1.85
2023-04-14T19:30:51.019Z,2.08
2023-04-14T19:33:18.638Z,2.45
2023-04-14T19:35:46.038Z,1.95
2023-04-14T19:38:13.854Z,1.90
2023-04-14T19:40:48.540Z,2.20
2023-04-14T19:43:16.945Z,2.38
2023-04-14T19:45:54.549Z,2.25
2023-04-14T19:48:24.281Z,2.42
2023-04-14T19:50:54.531Z,2.38
2023-04-14T19:57:12.616Z,1.90
2023-04-14T19:59:58.215Z,2.08
2023-04-14T20:02:30.269Z,2.47
2023-04-14T20:04:58.031Z,2.40
2023-04-14T20:07:25.588Z,2.40
2023-04-14T20:09:53.077Z,2.47
2023-04-14T20:12:20.398Z,2.97
2023-04-14T20:14:47.719Z,3.67
2023-04-14T20:17:15.156Z,4.35
2023-04-14T20:19:42.974Z,4.18
2023-04-14T20:22:10.324Z,4.35
2023-04-14T20:24:38.064Z,4.32
2023-04-14T20:27:05.449Z,4.30
2023-04-14T20:29:33.673Z,5.43
2023-04-14T20:35:31.145Z,9.43
2023-04-14T20:37:59.405Z,7.57
2023-04-14T20:40:27.227Z,6.65
2023-04-14T20:42:54.525Z,6.80
2023-04-14T20:45:22.401Z,6.93
2023-04-14T20:47:50.326Z,7.28
2023-04-14T20:50:18.820Z,7.32
2023-04-14T20:52:46.796Z,7.28
2023-04-14T21:02:55.026Z,6.72
2023-04-14T21:05:23.323Z,6.43
2023-04-14T21:08:10.107Z,6.18
2023-04-14T21:11:14.211Z,6.53
2023-04-14T21:15:44.308Z,5.95
2023-04-14T21:25:44.257Z,9.23
2023-04-14T21:28:11.980Z,9.93
2023-04-14T21:42:00.375Z,11.65
2023-04-14T21:44:28.374Z,13.55
2023-04-14T21:46:56.558Z,12.40
2023-04-14T21:49:23.879Z,12.27
2023-04-14T21:51:51.657Z,13.50
2023-04-14T21:54:19.626Z,13.18
2023-04-14T21:56:47.161Z,13.43
2023-04-14T21:59:53.084Z,13.23
2023-04-14T22:02:20.969Z,12.38
2023-04-14T22:04:48.628Z,11.73
2023-04-14T22:07:15.985Z,10.90
2023-04-14T22:09:44.254Z,11.55
2023-04-14T22:12:12.061Z,11.57
2023-04-14T22:14:39.560Z,9.13
2023-04-14T22:17:06.903Z,10.27
2023-04-14T22:19:34.258Z,10.57
2023-04-14T22:22:01.595Z,10.00
2023-04-14T22:24:29.450Z,9.27
2023-04-14T22:26:56.814Z,9.45
2023-04-14T22:29:24.370Z,9.85
2023-04-14T22:31:51.908Z,9.98
2023-04-14T22:34:19.449Z,10.30
2023-04-14T22:36:47.075Z,11.15
2023-04-14T22:39:14.460Z,11.23
2023-04-14T22:41:42.281Z,10.95
2023-04-14T22:44:09.577Z,11.63
2023-04-14T22:46:37.586Z,11.77
2023-04-14T22:49:05.495Z,11.43
2023-04-14T22:51:32.786Z,10.07
2023-04-14T22:54:00.803Z,11.38
2023-04-14T22:56:28.370Z,11.38
2023-04-14T22:58:59.022Z,9.98
2023-04-14T23:01:28.000Z,11.38
2023-04-14T23:03:56.040Z,11.55
2023-04-14T23:06:23.448Z,11.50
2023-04-14T23:08:51.426Z,10.45
2023-04-14T23:11:21.982Z,11.77
2023-04-14T23:13:50.416Z,10.70
2023-04-14T23:16:20.230Z,11.15
2023-04-14T23:18:51.839Z,11.77
2023-04-14T23:21:23.579Z,10.77
2023-04-14T23:23:51.265Z,11.35
2023-04-14T23:26:19.676Z,11.85
2023-04-14T23:28:47.484Z,11.27
2023-04-14T23:31:14.785Z,10.45
2023-04-14T23:33:42.063Z,12.25
2023-04-14T23:36:09.319Z,12.23
2023-04-14T23:38:36.611Z,11.13
2023-04-14T23:41:04.038Z,11.18
2023-04-14T23:43:31.315Z,9.32
2023-04-14T23:45:58.566Z,9.77
2023-04-14T23:48:26.929Z,9.48
2023-04-14T23:51:01.291Z,9.23
2023-04-14T23:53:41.602Z,9.15
2023-04-14T23:56:08.984Z,8.70
2023-04-14T23:58:37.116Z,10.00
